Time;durP1;ratioP1;P1;durP2;ratioP2;P2;SDS_P1;SDS_P2;PMS_P1;PMS_P2;Temp;Humidity;BMP_temperature;BMP_pressure;BME280_temperature;BME280_humidity;BME280_pressure;Samples;Min_cycle;Max_cycle;Signal;HPM_P1;HPM_P2
2023/06/06 00:01:32;;;;;;;10.23;3.07;;;;;;;22.65;47.63;100178.34;5012903;28;20947;-63
2023/06/06 00:03:57;;;;;;;10.20;2.90;;;;;;;22.68;47.57;100180.38;5029789;28;20311;-62
2023/06/06 00:06:24;;;;;;;6.60;2.93;;;;;;;22.72;47.53;100181.19;5027378;28;20680;-63
2023/06/06 00:08:52;;;;;;;11.67;3.33;;;;;;;22.76;47.48;100181.19;5026776;28;20200;-63
2023/06/06 00:11:18;;;;;;;5.77;2.83;;;;;;;22.78;47.65;100181.63;5022093;28;20893;-63
2023/06/06 00:13:44;;;;;;;8.40;2.87;;;;;;;22.79;47.65;100181.22;5038260;28;20459;-63
2023/06/06 00:16:13;;;;;;;6.63;3.03;;;;;;;22.79;47.34;100178.34;5038926;28;20934;-65
2023/06/06 00:18:39;;;;;;;11.07;3.20;;;;;;;22.79;48.22;100181.22;5035606;28;20541;-64
2023/06/06 00:21:04;;;;;;;5.60;3.23;;;;;;;22.80;48.30;100184.91;5041938;28;20415;-64
2023/06/06 00:23:30;;;;;;;4.50;2.77;;;;;;;22.86;47.95;100186.94;5031743;28;20462;-65
2023/06/06 00:25:56;;;;;;;6.17;3.03;;;;;;;22.89;47.76;100186.13;5020243;28;20478;-64
2023/06/06 00:28:22;;;;;;;6.30;3.00;;;;;;;22.89;48.29;100177.50;5032534;28;20419;-64
2023/06/06 00:30:47;;;;;;;6.43;3.20;;;;;;;22.89;47.29;100173.78;5031396;28;20169;-63
2023/06/06 00:33:12;;;;;;;5.27;2.60;;;;;;;22.85;47.48;100185.31;5047359;28;20179;-64
2023/06/06 00:35:38;;;;;;;7.10;3.50;;;;;;;22.79;47.40;100175.47;5060196;28;20314;-64
2023/06/06 00:38:03;;;;;;;10.30;3.23;;;;;;;22.76;47.16;100176.28;5029306;28;20192;-64
2023/06/06 00:40:29;;;;;;;9.67;3.63;;;;;;;22.76;47.30;100176.28;5040325;28;20234;-64
2023/06/06 00:42:54;;;;;;;8.83;2.80;;;;;;;22.77;47.76;100177.09;5020266;28;20181;-65
2023/06/06 00:45:20;;;;;;;7.80;3.17;;;;;;;22.74;47.56;100178.75;5052811;28;20177;-65
2023/06/06 00:47:45;;;;;;;7.63;3.33;;;;;;;22.78;48.26;100173.78;5030638;28;20188;-65
2023/06/06 00:50:12;;;;;;;5.27;3.10;;;;;;;22.80;48.01;100171.34;5033132;28;20187;-65
2023/06/06 00:52:38;;;;;;;5.33;3.20;;;;;;;22.80;48.08;100174.22;5029021;28;20157;-65
2023/06/06 00:55:04;;;;;;;5.63;3.10;;;;;;;22.82;48.21;100180.38;5035287;28;20440;-65
2023/06/06 00:57:30;;;;;;;7.40;2.83;;;;;;;22.83;48.67;100169.69;5032452;28;20466;-65
2023/06/06 00:59:55;;;;;;;6.10;3.20;;;;;;;22.82;48.77;100171.72;5017463;28;20169;-64
2023/06/06 01:02:24;;;;;;;7.20;2.77;;;;;;;22.82;48.97;100171.72;5049007;28;20188;-64
2023/06/06 01:04:50;;;;;;;4.57;3.03;;;;;;;22.83;48.84;100178.31;5054716;28;20164;-64
2023/06/06 01:07:17;;;;;;;8.13;2.97;;;;;;;22.83;48.84;100178.31;5028220;28;20428;-64
2023/06/06 01:09:43;;;;;;;5.67;2.57;;;;;;;22.81;49.52;100172.97;5031526;28;20440;-64
2023/06/06 01:12:13;;;;;;;8.13;3.23;;;;;;;22.82;48.97;100180.38;5016082;28;20394;-64
2023/06/06 01:14:50;;;;;;;5.30;3.07;;;;;;;22.83;48.90;100189.84;5049150;28;20479;-64
2023/06/06 01:17:18;;;;;;;5.57;3.43;;;;;;;22.81;49.10;100190.25;5034510;28;20486;-64
2023/06/06 01:19:47;;;;;;;5.27;2.67;;;;;;;22.81;49.53;100186.53;5038339;28;20420;-64
2023/06/06 01:22:13;;;;;;;6.00;3.50;;;;;;;22.81;49.38;100189.41;5036157;28;20472;-64
2023/06/06 01:24:44;;;;;;;5.47;2.70;;;;;;;22.81;49.28;100189.41;5035385;28;20427;-64
2023/06/06 01:27:10;;;;;;;6.13;3.10;;;;;;;22.80;49.35;100187.78;5032490;28;20165;-64
2023/06/06 01:29:35;;;;;;;4.77;2.70;;;;;;;22.81;49.20;100189.41;5033682;28;20470;-64
2023/06/06 01:32:02;;;;;;;4.60;2.97;;;;;;;22.80;49.60;100191.50;5037435;28;20175;-64
2023/06/06 01:34:35;;;;;;;4.33;3.13;;;;;;;22.80;50.08;100193.53;5031378;28;20166;-64
2023/06/06 01:37:36;;;;;;;5.20;3.47;;;;;;;22.79;49.75;100195.59;5035578;28;20415;-64
2023/06/06 01:40:05;;;;;;;4.50;2.67;;;;;;;22.80;49.72;100196.41;5054404;28;20419;-64
2023/06/06 01:42:32;;;;;;;4.53;3.07;;;;;;;22.80;49.63;100193.53;5054830;28;20419;-64
2023/06/06 01:44:58;;;;;;;5.33;2.80;;;;;;;22.79;50.03;100184.09;5053098;28;20403;-64
2023/06/06 01:47:24;;;;;;;4.77;3.13;;;;;;;22.77;49.86;100189.41;5039852;28;20442;-64
2023/06/06 01:49:49;;;;;;;4.33;2.50;;;;;;;22.78;50.08;100191.06;5034638;28;20188;-64
2023/06/06 01:52:15;;;;;;;5.53;3.37;;;;;;;22.78;50.17;100191.06;5037898;28;20153;-64
2023/06/06 01:54:41;;;;;;;3.83;2.43;;;;;;;22.78;50.02;100193.94;5035799;28;20533;-64
2023/06/06 01:57:07;;;;;;;7.03;3.60;;;;;;;22.77;50.02;100188.63;5038000;28;20477;-64
2023/06/06 01:59:33;;;;;;;4.83;2.53;;;;;;;22.76;50.03;100189.81;5034646;28;20309;-64
2023/06/06 02:01:58;;;;;;;5.33;2.87;;;;;;;22.77;50.38;100189.41;5035373;28;20416;-64
2023/06/06 02:04:24;;;;;;;6.87;3.30;;;;;;;22.76;50.37;100187.78;5031774;28;20173;-65
2023/06/06 02:06:51;;;;;;;6.73;3.10;;;;;;;22.77;50.19;100194.38;5030843;28;20188;-65
2023/06/06 02:09:17;;;;;;;7.10;2.50;;;;;;;22.77;50.09;100198.06;5041965;28;20196;-65
2023/06/06 02:11:42;;;;;;;8.67;3.10;;;;;;;22.76;49.99;100199.31;5035851;28;20533;-65
2023/06/06 02:14:08;;;;;;;5.10;2.70;;;;;;;22.74;50.28;100204.66;5032499;28;20235;-65
2023/06/06 02:16:36;;;;;;;5.10;2.90;;;;;;;22.76;50.46;100204.22;5034609;28;20236;-65
2023/06/06 02:19:01;;;;;;;4.93;3.03;;;;;;;22.74;50.21;100201.78;5031595;28;20181;-65
2023/06/06 02:21:27;;;;;;;4.20;2.30;;;;;;;22.75;50.49;100209.19;5033807;28;20433;-65
2023/06/06 02:23:52;;;;;;;6.20;3.20;;;;;;;22.75;50.25;100205.47;5043366;28;20168;-65
2023/06/06 02:26:18;;;;;;;4.40;3.10;;;;;;;22.74;50.37;100210.41;5037613;28;20169;-65
2023/06/06 02:28:43;;;;;;;3.97;2.83;;;;;;;22.75;50.61;100214.94;5031662;28;20181;-65
2023/06/06 02:31:14;;;;;;;3.90;2.30;;;;;;;22.74;50.59;100216.16;5034323;28;20180;-65
2023/06/06 02:33:39;;;;;;;4.87;3.17;;;;;;;22.74;50.79;100213.28;5041403;28;20160;-65
2023/06/06 02:36:06;;;;;;;4.87;3.27;;;;;;;22.74;50.71;100216.16;5053993;28;20411;-65
2023/06/06 02:38:31;;;;;;;5.10;3.00;;;;;;;22.74;51.07;100216.16;5043286;28;20220;-65
2023/06/06 02:40:57;;;;;;;4.70;3.00;;;;;;;22.74;50.88;100215.34;5054546;28;20450;-65
2023/06/06 02:43:22;;;;;;;4.43;3.00;;;;;;;22.73;50.43;100223.13;5053975;28;20188;-65
2023/06/06 02:45:48;;;;;;;4.23;3.00;;;;;;;22.73;50.85;100213.69;5049354;28;20635;-65
2023/06/06 02:48:13;;;;;;;3.97;2.83;;;;;;;22.73;50.99;100222.34;5034083;28;20187;-65
2023/06/06 02:50:39;;;;;;;5.93;3.27;;;;;;;22.72;50.98;100218.63;5031384;28;20138;-65
2023/06/06 02:53:06;;;;;;;6.67;2.73;;;;;;;22.71;50.80;100213.28;5033810;28;20165;-65
2023/06/06 02:55:31;;;;;;;4.53;2.60;;;;;;;22.72;50.70;100214.94;5031018;28;20185;-65
2023/06/06 02:57:57;;;;;;;5.53;3.00;;;;;;;22.71;51.14;100216.16;5030984;28;20443;-65
2023/06/06 03:00:22;;;;;;;4.90;2.80;;;;;;;22.72;50.73;100214.94;5030858;28;20150;-65
2023/06/06 03:02:48;;;;;;;5.40;2.97;;;;;;;22.71;51.10;100222.75;5049911;28;20189;-65
2023/06/06 03:05:13;;;;;;;4.80;3.03;;;;;;;22.70;51.14;100215.34;5051721;28;20161;-65
2023/06/06 03:07:39;;;;;;;3.97;2.80;;;;;;;22.71;50.92;100219.03;5039472;28;20188;-65
2023/06/06 03:10:05;;;;;;;4.97;3.23;;;;;;;22.71;51.23;100228.50;5030350;28;20280;-65
2023/06/06 03:12:30;;;;;;;5.30;2.97;;;;;;;22.71;51.29;100222.75;5043678;28;20204;-64
2023/06/06 03:14:55;;;;;;;4.30;2.90;;;;;;;22.70;51.17;100228.91;5048854;28;20224;-64
2023/06/06 03:17:21;;;;;;;4.43;3.10;;;;;;;22.71;51.32;100231.38;5049616;28;20200;-65
2023/06/06 03:19:48;;;;;;;3.90;2.83;;;;;;;22.70;51.30;100232.63;5051137;28;20169;-65
2023/06/06 03:22:17;;;;;;;4.00;2.90;;;;;;;22.70;50.92;100237.53;5043438;28;20183;-65
2023/06/06 03:24:45;;;;;;;5.13;2.87;;;;;;;22.70;51.33;100235.50;5028866;28;20498;-65
2023/06/06 03:27:11;;;;;;;5.00;2.73;;;;;;;22.69;51.31;100239.59;5028394;28;20456;-65
2023/06/06 03:29:37;;;;;;;3.93;2.57;;;;;;;22.69;50.98;100239.59;5031973;28;20428;-65
2023/06/06 03:32:02;;;;;;;5.03;3.13;;;;;;;22.69;50.93;100236.72;5028334;28;20412;-65
2023/06/06 03:34:29;;;;;;;5.80;3.07;;;;;;;22.69;51.37;100239.59;5029417;28;20589;-65
2023/06/06 03:36:54;;;;;;;4.50;3.07;;;;;;;22.68;51.45;100240.81;5026635;28;20705;-65
2023/06/06 03:39:20;;;;;;;4.13;2.80;;;;;;;22.69;51.10;100244.53;5029102;28;20448;-65
2023/06/06 03:41:45;;;;;;;5.43;3.33;;;;;;;22.68;51.18;100240.81;5027476;28;20731;-65
2023/06/06 03:44:11;;;;;;;6.10;3.20;;;;;;;22.69;51.64;100244.53;5041532;28;20184;-65
2023/06/06 03:46:36;;;;;;;5.00;3.43;;;;;;;22.68;51.18;100246.56;5048347;28;20184;-65
2023/06/06 03:49:02;;;;;;;4.93;3.13;;;;;;;22.67;51.17;100253.56;5048312;28;20222;-65
2023/06/06 03:51:27;;;;;;;4.70;2.87;;;;;;;22.67;51.84;100244.94;5043471;28;20188;-64
2023/06/06 03:53:53;;;;;;;4.53;3.10;;;;;;;22.68;51.58;100246.56;5030402;28;20613;-65
2023/06/06 03:56:18;;;;;;;4.17;2.60;;;;;;;22.68;51.43;100252.34;5026437;28;20480;-65
2023/06/06 03:58:46;;;;;;;4.20;3.13;;;;;;;22.67;51.52;100259.31;5030988;28;20192;-65
2023/06/06 04:01:12;;;;;;;5.07;3.23;;;;;;;22.67;51.90;100252.75;5037405;28;20173;-65
2023/06/06 04:03:37;;;;;;;4.70;3.47;;;;;;;22.67;51.79;100247.81;5028416;28;20427;-64
2023/06/06 04:06:04;;;;;;;4.10;2.60;;;;;;;22.67;51.64;100267.16;5027755;28;20685;-65
2023/06/06 04:08:31;;;;;;;3.63;2.77;;;;;;;22.67;51.86;100255.66;5030202;28;20418;-64
2023/06/06 04:10:56;;;;;;;3.90;2.77;;;;;;;22.66;51.50;100253.97;5032230;28;20428;-65
2023/06/06 04:13:22;;;;;;;5.50;3.00;;;;;;;22.66;51.76;100251.94;5034372;28;20493;-65
2023/06/06 04:15:48;;;;;;;4.40;3.00;;;;;;;22.66;51.90;100269.19;5037270;28;20196;-65
2023/06/06 04:18:13;;;;;;;5.00;2.90;;;;;;;22.66;51.67;100269.19;5046498;28;20224;-65
2023/06/06 04:20:39;;;;;;;3.60;2.70;;;;;;;22.66;51.92;100262.59;5048415;28;20795;-65
2023/06/06 04:23:05;;;;;;;4.30;2.70;;;;;;;22.66;52.09;100269.19;5031231;28;20169;-65
2023/06/06 04:25:30;;;;;;;4.70;2.87;;;;;;;22.66;52.14;100274.97;5030980;28;20165;-65
2023/06/06 04:27:56;;;;;;;4.60;3.00;;;;;;;22.66;52.06;100274.13;5034553;28;20420;-65
2023/06/06 04:30:24;;;;;;;3.97;2.87;;;;;;;22.65;51.63;100266.72;5035893;28;20173;-65
2023/06/06 04:32:51;;;;;;;3.63;2.90;;;;;;;22.65;52.12;100267.56;5034176;28;20156;-65
2023/06/06 04:35:16;;;;;;;5.50;3.03;;;;;;;22.66;51.64;100274.97;5036341;28;20416;-65
2023/06/06 04:37:42;;;;;;;5.20;3.03;;;;;;;22.67;51.57;100276.59;5054205;28;20458;-65
2023/06/06 04:40:10;;;;;;;4.97;3.20;;;;;;;22.68;51.68;100271.66;5052614;28;20172;-65
2023/06/06 04:42:35;;;;;;;4.83;3.17;;;;;;;22.68;51.66;100271.66;5036505;28;20559;-65
2023/06/06 04:45:05;;;;;;;5.13;2.83;;;;;;;22.69;51.81;100274.16;5054577;28;20477;-65
2023/06/06 04:47:31;;;;;;;3.70;2.50;;;;;;;22.69;52.01;100274.16;5054041;28;20187;-64
2023/06/06 04:49:58;;;;;;;5.10;3.10;;;;;;;22.70;52.02;100272.91;5055433;28;20447;-64
2023/06/06 04:52:24;;;;;;;4.20;2.60;;;;;;;22.71;51.80;100274.53;5050215;28;20442;-65
2023/06/06 04:54:49;;;;;;;7.07;2.83;;;;;;;22.70;51.80;100278.66;5033942;28;20384;-65
2023/06/06 04:57:16;;;;;;;4.70;2.87;;;;;;;22.69;51.74;100271.28;5032993;28;20184;-65
2023/06/06 04:59:52;;;;;;;3.80;2.60;;;;;;;22.69;51.96;100274.16;5038136;28;20177;-65
2023/06/06 05:02:22;;;;;;;3.53;2.20;;;;;;;22.69;52.21;100274.16;5022521;28;20447;-65
2023/06/06 05:04:52;;;;;;;4.33;2.67;;;;;;;22.69;51.91;100279.91;5035551;28;20427;-65
2023/06/06 05:07:17;;;;;;;3.90;2.90;;;;;;;22.69;52.01;100277.03;5036262;28;20451;-65
2023/06/06 05:09:43;;;;;;;4.97;2.60;;;;;;;22.71;52.25;100288.94;5034528;28;21112;-64
2023/06/06 05:12:09;;;;;;;5.10;3.27;;;;;;;22.70;52.55;100287.31;5047322;28;20188;-64
2023/06/06 05:14:34;;;;;;;6.17;3.10;;;;;;;22.71;52.66;100288.94;5053643;28;20238;-64
2023/06/06 05:17:00;;;;;;;4.90;3.10;;;;;;;22.71;52.38;100286.06;5040324;28;20173;-64
2023/06/06 05:19:25;;;;;;;3.60;2.40;;;;;;;22.70;52.71;100281.53;5038346;28;20208;-65
2023/06/06 05:21:51;;;;;;;4.87;2.77;;;;;;;22.72;52.43;100284.81;5038247;28;20172;-65
2023/06/06 05:24:16;;;;;;;5.13;3.40;;;;;;;22.71;52.99;100291.81;5039194;28;20170;-65
2023/06/06 05:26:42;;;;;;;4.40;2.70;;;;;;;22.73;52.86;100289.34;5038398;28;20191;-65
2023/06/06 05:29:08;;;;;;;3.83;2.87;;;;;;;22.75;52.89;100289.78;5040064;28;20183;-65
2023/06/06 05:31:33;;;;;;;4.33;2.70;;;;;;;22.76;52.49;100291.41;5038371;28;20243;-65
2023/06/06 05:33:59;;;;;;;3.30;2.60;;;;;;;22.76;52.33;100299.22;5024991;28;20432;-65
2023/06/06 05:36:25;;;;;;;4.50;3.17;;;;;;;22.74;52.58;100299.66;5035469;28;20184;-65
2023/06/06 05:38:50;;;;;;;3.73;2.63;;;;;;;22.73;52.76;100297.16;5036849;28;20204;-65
2023/06/06 05:41:17;;;;;;;4.80;2.83;;;;;;;22.71;52.67;100288.94;5040824;28;20204;-65
2023/06/06 05:43:50;;;;;;;4.27;3.27;;;;;;;22.72;52.90;100296.34;5042648;28;20173;-65
2023/06/06 05:46:15;;;;;;;5.13;2.83;;;;;;;22.72;52.87;100296.34;5045997;28;20480;-66
2023/06/06 05:48:41;;;;;;;5.83;3.07;;;;;;;22.68;52.69;100298.38;5031855;28;20431;-66
2023/06/06 05:51:07;;;;;;;5.53;3.07;;;;;;;22.58;53.38;100301.25;5024281;28;20260;-65
2023/06/06 05:53:33;;;;;;;5.00;3.50;;;;;;;22.52;54.12;100305.78;5006531;28;20184;-66
2023/06/06 05:55:58;;;;;;;4.53;3.50;;;;;;;22.53;53.51;100304.53;5027411;28;20495;-65
2023/06/06 05:58:23;;;;;;;4.87;3.73;;;;;;;22.61;54.46;100298.38;5035308;28;20204;-65
2023/06/06 06:00:49;;;;;;;8.50;4.20;;;;;;;22.86;56.10;100296.34;5031792;28;20192;-63
2023/06/06 06:03:15;;;;;;;11.13;5.77;;;;;;;23.05;59.60;100298.00;5045599;28;20192;-65
2023/06/06 06:05:40;;;;;;;9.00;4.43;;;;;;;23.06;56.70;100306.22;5028139;28;20184;-65
2023/06/06 06:08:06;;;;;;;11.33;6.00;;;;;;;23.04;59.02;100305.84;5044085;28;20465;-65
2023/06/06 06:10:32;;;;;;;8.70;5.00;;;;;;;23.04;58.22;100311.59;5042848;28;20192;-65
2023/06/06 06:12:58;;;;;;;9.63;4.13;;;;;;;23.08;59.10;100300.88;5029336;28;20189;-66
2023/06/06 06:15:24;;;;;;;10.80;4.37;;;;;;;23.12;57.84;100304.56;5019042;28;20451;-64
2023/06/06 06:17:50;;;;;;;7.40;4.43;;;;;;;23.01;57.09;100303.75;5024773;28;20238;-66
2023/06/06 06:20:16;;;;;;;9.50;4.20;;;;;;;23.00;57.36;100307.88;5034146;28;20193;-65
2023/06/06 06:22:41;;;;;;;9.37;4.00;;;;;;;23.05;57.72;100306.63;5026735;28;20185;-68
2023/06/06 06:25:12;;;;;;;6.40;4.07;;;;;;;23.08;57.71;100306.63;5016614;28;20455;-67
2023/06/06 06:27:41;;;;;;;10.10;3.97;;;;;;;23.13;57.51;100311.19;5033516;28;20177;-65
2023/06/06 06:30:07;;;;;;;6.13;3.70;;;;;;;23.14;57.25;100312.81;5042391;28;20673;-65
2023/06/06 06:32:35;;;;;;;6.43;4.57;;;;;;;23.09;56.68;100316.91;5022300;28;20974;-64
2023/06/06 06:35:02;;;;;;;4.87;3.70;;;;;;;23.08;56.82;100309.50;5014821;28;20448;-65
2023/06/06 06:37:29;;;;;;;8.73;3.70;;;;;;;23.11;56.82;100311.56;5024795;28;20487;-64
2023/06/06 06:39:55;;;;;;;5.33;3.20;;;;;;;23.12;56.13;100310.34;5013062;28;20842;-65
2023/06/06 06:42:21;;;;;;;7.97;3.70;;;;;;;23.10;55.96;100317.75;5025170;28;21087;-65
2023/06/06 06:44:47;;;;;;;5.80;3.80;;;;;;;23.10;56.75;100318.59;5017511;28;20435;-65
2023/06/06 06:47:12;;;;;;;6.90;4.57;;;;;;;23.12;57.89;100318.97;5021119;28;20184;-65
2023/06/06 06:49:39;;;;;;;7.37;4.50;;;;;;;23.13;57.74;100317.75;5031353;28;20188;-65
2023/06/06 06:52:07;;;;;;;7.53;4.10;;;;;;;23.14;58.11;100316.50;5032088;28;20625;-65
2023/06/06 06:54:42;;;;;;;6.97;4.60;;;;;;;23.14;57.81;100319.38;5018578;28;20822;-65
2023/06/06 06:57:09;;;;;;;6.67;4.00;;;;;;;23.15;57.68;100325.97;5022921;28;20430;-65
2023/06/06 06:59:35;;;;;;;7.43;3.93;;;;;;;23.17;57.30;100326.38;5029678;28;20901;-65
2023/06/06 07:02:02;;;;;;;7.43;4.97;;;;;;;23.14;57.33;100319.38;5024286;28;20443;-66
2023/06/06 07:04:28;;;;;;;7.20;5.10;;;;;;;23.10;57.58;100335.03;5023021;28;20401;-66
2023/06/06 07:06:54;;;;;;;6.00;4.20;;;;;;;23.05;56.97;100321.03;5043994;28;20448;-66
2023/06/06 07:09:21;;;;;;;8.70;4.30;;;;;;;23.00;55.91;100322.28;5035814;28;20452;-66
2023/06/06 07:11:46;;;;;;;10.40;4.13;;;;;;;22.95;55.61;100334.22;5050189;28;20443;-64
2023/06/06 07:14:12;;;;;;;11.77;4.40;;;;;;;23.00;56.18;100330.91;5044201;28;20505;-63
2023/06/06 07:16:37;;;;;;;8.10;4.17;;;;;;;22.98;55.88;100327.59;5044188;28;20179;-66
2023/06/06 07:19:03;;;;;;;8.57;4.97;;;;;;;22.97;56.10;100328.84;5034274;28;20208;-65
2023/06/06 07:21:28;;;;;;;10.20;5.17;;;;;;;22.96;56.38;100330.09;5036174;28;20188;-65
2023/06/06 07:23:54;;;;;;;11.07;3.87;;;;;;;22.93;55.93;100333.78;5040820;28;20189;-65
2023/06/06 07:26:20;;;;;;;10.90;4.03;;;;;;;22.95;55.85;100336.25;5036751;28;20235;-65
2023/06/06 07:28:48;;;;;;;8.23;4.40;;;;;;;22.95;56.08;100330.50;5027162;28;20760;-65
2023/06/06 07:31:15;;;;;;;10.83;3.90;;;;;;;22.97;56.38;100325.97;5023884;28;20606;-65
2023/06/06 07:33:40;;;;;;;5.53;3.40;;;;;;;22.99;56.59;100328.44;5027196;28;20458;-65
2023/06/06 07:36:07;;;;;;;5.50;3.70;;;;;;;23.00;56.53;100325.16;5035650;28;21112;-65
2023/06/06 07:38:32;;;;;;;6.83;3.83;;;;;;;23.02;56.99;100322.69;5040568;28;20196;-65
2023/06/06 07:40:58;;;;;;;5.53;2.80;;;;;;;23.01;56.49;100329.69;5032303;28;20431;-65
2023/06/06 07:43:23;;;;;;;6.57;4.20;;;;;;;23.02;56.45;100330.50;5032995;28;20181;-65
2023/06/06 07:45:50;;;;;;;11.20;3.50;;;;;;;23.02;56.93;100325.56;5038425;28;20181;-65
2023/06/06 07:48:15;;;;;;;8.77;3.77;;;;;;;23.03;56.79;100315.69;5031714;28;20181;-65
2023/06/06 07:50:41;;;;;;;7.33;3.87;;;;;;;23.02;56.90;100324.75;5022473;28;20421;-65
2023/06/06 07:53:06;;;;;;;8.30;3.40;;;;;;;23.01;56.64;100309.53;5016503;28;20185;-65
2023/06/06 07:55:32;;;;;;;5.30;3.90;;;;;;;23.02;56.93;100310.34;5019521;28;20181;-65
2023/06/06 07:57:58;;;;;;;6.97;3.53;;;;;;;23.01;56.68;100311.56;5015588;28;20209;-65
2023/06/06 08:00:23;;;;;;;5.80;3.60;;;;;;;23.02;56.97;100314.03;5022827;28;20477;-65
2023/06/06 08:02:49;;;;;;;10.67;3.43;;;;;;;23.02;56.72;100308.28;5037811;28;20181;-65
2023/06/06 08:05:16;;;;;;;5.13;3.40;;;;;;;23.02;56.71;100310.34;5033593;28;20249;-65
2023/06/06 08:07:41;;;;;;;4.87;3.60;;;;;;;23.01;57.19;100309.53;5026060;28;20185;-65
2023/06/06 08:10:07;;;;;;;5.70;3.27;;;;;;;23.02;57.16;100310.34;5015628;28;20500;-65
2023/06/06 08:12:33;;;;;;;6.63;4.30;;;;;;;23.01;56.79;100318.16;5014841;28;20926;-65
2023/06/06 08:14:58;;;;;;;6.17;3.60;;;;;;;23.01;57.04;100309.53;5031711;28;20224;-65
2023/06/06 08:17:24;;;;;;;6.30;3.63;;;;;;;23.01;56.75;100320.22;5019129;28;20192;-65
2023/06/06 08:19:49;;;;;;;6.97;3.80;;;;;;;23.01;56.43;100309.53;5014027;28;20162;-65
2023/06/06 08:22:15;;;;;;;5.00;3.57;;;;;;;23.01;56.74;100308.69;5015380;28;20224;-65
2023/06/06 08:24:41;;;;;;;7.80;4.10;;;;;;;23.01;56.56;100312.41;5014196;28;20184;-65
2023/06/06 08:27:07;;;;;;;10.07;4.20;;;;;;;23.01;56.65;100309.53;5017688;28;20165;-65
2023/06/06 08:29:33;;;;;;;5.53;3.13;;;;;;;23.02;56.36;100316.13;5026945;28;21032;-65
2023/06/06 08:32:00;;;;;;;5.97;3.90;;;;;;;23.02;56.71;100321.88;5028799;28;20180;-65
2023/06/06 08:34:26;;;;;;;5.90;3.80;;;;;;;23.02;56.26;100316.13;5019663;28;20181;-65
2023/06/06 08:36:52;;;;;;;5.57;3.17;;;;;;;23.02;56.63;100316.91;5012485;28;20446;-65
2023/06/06 08:39:20;;;;;;;5.70;3.70;;;;;;;23.03;56.36;100320.63;5008171;28;20205;-65
2023/06/06 08:41:50;;;;;;;6.60;3.37;;;;;;;23.02;55.66;100314.03;5013230;28;20245;-65
2023/06/06 08:44:23;;;;;;;5.60;3.50;;;;;;;23.02;55.66;100314.03;5036873;28;20497;-65
2023/06/06 08:46:53;;;;;;;7.80;3.47;;;;;;;23.02;55.78;100316.91;5021732;28;20954;-65
2023/06/06 08:49:19;;;;;;;5.37;3.90;;;;;;;23.04;56.36;100316.50;5015739;28;20481;-65
2023/06/06 08:51:48;;;;;;;5.17;3.43;;;;;;;23.04;55.62;100314.47;5024589;28;20431;-65
2023/06/06 08:54:14;;;;;;;6.83;3.87;;;;;;;23.04;56.05;100311.59;5017125;28;20169;-65
2023/06/06 08:56:43;;;;;;;5.97;3.50;;;;;;;23.04;55.68;100320.22;5019687;28;20431;-65
2023/06/06 08:59:10;;;;;;;4.40;3.07;;;;;;;23.05;55.69;100316.13;5017917;28;20193;-65
2023/06/06 09:01:36;;;;;;;7.30;3.70;;;;;;;23.04;55.58;100310.75;5015513;28;20473;-65
2023/06/06 09:04:02;;;;;;;4.90;2.97;;;;;;;23.04;55.87;100316.50;5016325;28;20561;-65
2023/06/06 09:06:27;;;;;;;4.57;3.67;;;;;;;23.04;55.29;100314.47;5014739;28;20926;-65
2023/06/06 09:08:53;;;;;;;7.60;4.03;;;;;;;23.05;55.41;100326.78;5030846;28;20188;-65
2023/06/06 09:11:19;;;;;;;4.90;3.60;;;;;;;23.05;55.11;100321.03;5027942;28;20199;-65
2023/06/06 09:13:44;;;;;;;5.30;3.70;;;;;;;23.05;55.59;100310.34;5029557;28;20703;-65
2023/06/06 09:16:11;;;;;;;4.90;3.27;;;;;;;23.05;55.17;100315.28;5014129;28;20656;-65
2023/06/06 09:18:36;;;;;;;4.87;3.50;;;;;;;23.06;54.79;100314.88;5018910;28;20467;-65
2023/06/06 09:21:02;;;;;;;5.10;3.27;;;;;;;23.05;54.84;100313.22;5020394;28;20439;-65
2023/06/06 09:23:31;;;;;;;3.90;2.90;;;;;;;23.05;54.65;100315.28;5021601;28;20251;-65
2023/06/06 09:25:56;;;;;;;6.50;3.47;;;;;;;23.05;55.38;100318.16;5034610;28;20252;-65
2023/06/06 09:28:38;;;;;;;4.53;3.20;;;;;;;23.07;54.57;100318.56;5038694;28;20419;-65
2023/06/06 09:31:29;;;;;;;5.63;3.60;;;;;;;23.06;54.78;100320.63;5027604;28;20181;-65
2023/06/06 09:33:58;;;;;;;5.70;3.33;;;;;;;23.06;54.43;100309.09;5026699;28;20431;-65
2023/06/06 09:36:27;;;;;;;5.27;3.80;;;;;;;23.07;54.52;100309.91;5018414;28;20475;-65
2023/06/06 09:38:54;;;;;;;5.17;3.53;;;;;;;23.06;54.23;100317.75;5030260;28;21138;-65
2023/06/06 09:41:21;;;;;;;5.20;3.60;;;;;;;23.05;54.25;100310.34;5036226;28;20430;-65
2023/06/06 09:43:47;;;;;;;4.23;2.90;;;;;;;23.06;54.46;100306.22;5029926;28;20430;-65
2023/06/06 09:46:17;;;;;;;6.30;3.70;;;;;;;23.07;54.58;100304.16;5018036;28;20424;-65
2023/06/06 09:48:42;;;;;;;7.57;3.70;;;;;;;23.07;54.32;100309.91;5025406;28;20260;-65
2023/06/06 09:51:12;;;;;;;5.63;3.47;;;;;;;23.06;54.30;100306.22;5026302;28;20423;-64
2023/06/06 09:53:37;;;;;;;4.03;3.03;;;;;;;23.07;54.08;100312.78;5014771;28;20180;-65
2023/06/06 09:56:03;;;;;;;5.23;3.70;;;;;;;23.07;54.29;100313.63;5035741;28;20430;-64
2023/06/06 09:58:30;;;;;;;5.43;3.50;;;;;;;23.08;53.77;100306.63;5035244;28;21145;-65
2023/06/06 10:00:58;;;;;;;6.03;3.83;;;;;;;23.08;53.40;100302.94;5023733;28;20446;-65
2023/06/06 10:03:24;;;;;;;3.70;3.00;;;;;;;23.08;53.77;100289.34;5024179;28;20422;-65
2023/06/06 10:05:50;;;;;;;5.67;3.57;;;;;;;23.08;53.39;100295.09;5034797;28;20788;-65
2023/06/06 10:08:19;;;;;;;5.17;3.23;;;;;;;23.08;53.73;100294.31;5018667;28;20271;-64
2023/06/06 10:10:46;;;;;;;4.90;3.70;;;;;;;23.09;53.77;100290.19;5024969;28;20204;-65
2023/06/06 10:13:19;;;;;;;5.30;3.33;;;;;;;23.11;53.76;100276.19;5035757;28;20511;-64
2023/06/06 10:15:45;;;;;;;6.83;4.07;;;;;;;23.10;53.47;100286.06;5018779;28;20420;-64
2023/06/06 10:18:10;;;;;;;5.10;3.47;;;;;;;23.10;53.49;100289.78;5032510;28;21080;-65
2023/06/06 10:20:36;;;;;;;4.53;3.40;;;;;;;23.09;53.47;100288.09;5023784;28;20185;-64
2023/06/06 10:23:02;;;;;;;5.23;2.70;;;;;;;23.10;53.03;100280.31;5021538;28;20188;-65
2023/06/06 10:25:27;;;;;;;5.80;3.40;;;;;;;23.09;53.22;100287.31;5024492;28;20177;-65
2023/06/06 10:27:55;;;;;;;6.40;3.10;;;;;;;23.08;53.47;100291.44;5032384;28;20192;-64
2023/06/06 10:30:43;;;;;;;10.63;3.27;;;;;;;23.10;53.50;100289.78;5023544;28;20185;-64
2023/06/06 10:33:34;;;;;;;5.90;4.07;;;;;;;23.09;52.67;100288.09;4993919;28;20463;-65
2023/06/06 10:36:03;;;;;;;7.40;3.60;;;;;;;23.11;52.87;100293.47;5014928;28;20461;-65
2023/06/06 10:38:30;;;;;;;4.60;3.03;;;;;;;23.11;53.13;100288.53;5023565;28;20960;-65
2023/06/06 10:40:56;;;;;;;9.83;4.20;;;;;;;23.10;52.87;100289.78;5014364;28;20440;-65
2023/06/06 10:43:34;;;;;;;5.30;3.97;;;;;;;23.10;52.64;100292.66;5020650;28;20507;-65
2023/06/06 10:46:00;;;;;;;5.17;3.50;;;;;;;23.10;52.52;100289.78;5029045;28;20442;-65
2023/06/06 10:48:48;;;;;;;5.47;3.27;;;;;;;23.11;52.15;100285.66;5024228;28;20434;-65
2023/06/06 10:51:23;;;;;;;4.83;3.53;;;;;;;23.11;52.15;100282.78;5016724;28;20473;-65
2023/06/06 10:54:18;;;;;;;7.40;4.30;;;;;;;23.12;51.97;100280.69;5016938;28;20784;-65
2023/06/06 10:56:53;;;;;;;6.60;3.90;;;;;;;23.12;52.48;100278.66;5017024;28;20482;-65
2023/06/06 10:59:26;;;;;;;5.60;3.50;;;;;;;23.12;51.97;100286.47;5019379;28;20490;-65
2023/06/06 11:01:52;;;;;;;6.27;4.17;;;;;;;23.12;51.61;100292.22;5024021;28;20441;-65
2023/06/06 11:04:20;;;;;;;5.17;3.73;;;;;;;23.14;51.68;100275.38;5012619;28;21280;-65
2023/06/06 11:06:47;;;;;;;6.00;3.47;;;;;;;23.13;51.43;100277.41;5019917;28;20177;-65
2023/06/06 11:09:32;;;;;;;5.30;3.50;;;;;;;23.14;51.74;100281.94;5010223;28;20554;-65
2023/06/06 11:12:20;;;;;;;5.63;3.33;;;;;;;23.13;51.85;100268.78;5017378;28;20545;-65
2023/06/06 11:15:06;;;;;;;6.60;4.10;;;;;;;23.13;51.79;100277.41;5016186;28;21233;-67
2023/06/06 11:17:52;;;;;;;6.07;3.80;;;;;;;23.11;51.89;100274.13;5024366;28;20471;-66
2023/06/06 11:20:18;;;;;;;4.80;3.50;;;;;;;23.13;51.54;100271.66;5012729;28;20436;-66
2023/06/06 11:22:51;;;;;;;5.57;3.50;;;;;;;23.15;51.30;100263.44;5021980;28;20954;-66
2023/06/06 11:25:23;;;;;;;5.50;3.70;;;;;;;23.14;51.04;100269.59;5010120;28;20217;-65